createdAt,value
2019-02-24T00:05:38.924Z,8.00
2019-02-24T00:11:45.035Z,8.20
2019-02-24T00:17:50.899Z,9.00
2019-02-24T00:23:56.892Z,8.30
2019-02-24T00:30:02.860Z,8.57
2019-02-24T00:36:08.935Z,7.40
2019-02-24T00:42:14.655Z,7.63
2019-02-24T00:48:20.832Z,8.40
2019-02-24T00:54:26.905Z,7.77
2019-02-24T01:00:32.810Z,6.63
2019-02-24T01:06:38.820Z,7.30
2019-02-24T01:12:44.789Z,6.93
2019-02-24T01:18:50.637Z,7.13
2019-02-24T01:24:56.659Z,6.80
2019-02-24T01:31:21.462Z,7.00
2019-02-24T01:37:27.659Z,6.63
2019-02-24T01:43:33.542Z,6.67
2019-02-24T01:49:39.251Z,6.67
2019-02-24T01:55:45.054Z,6.63
2019-02-24T02:01:50.913Z,7.13
2019-02-24T02:07:57.435Z,6.20
2019-02-24T02:14:03.311Z,6.53
2019-02-24T02:20:09.513Z,6.70
2019-02-24T02:26:15.766Z,6.53
2019-02-24T02:32:21.759Z,6.47
2019-02-24T02:38:27.821Z,6.27
2019-02-24T02:44:33.659Z,6.23
2019-02-24T02:50:39.654Z,6.70
2019-02-24T02:56:45.362Z,5.60
2019-02-24T03:02:51.332Z,6.10
2019-02-24T03:08:57.313Z,5.87
2019-02-24T03:15:03.090Z,5.73
2019-02-24T03:21:09.156Z,5.80
2019-02-24T03:27:14.896Z,5.20
2019-02-24T03:33:21.179Z,6.40
2019-02-24T03:39:26.971Z,5.43
2019-02-24T03:45:32.760Z,5.90
2019-02-24T03:51:38.587Z,6.57
2019-02-24T03:57:44.791Z,6.03
2019-02-24T04:03:50.531Z,6.23
2019-02-24T04:09:56.441Z,6.67
2019-02-24T04:16:02.214Z,6.27
2019-02-24T04:22:08.383Z,5.70
2019-02-24T04:28:14.169Z,5.60
2019-02-24T04:34:20.128Z,5.47
2019-02-24T04:40:25.957Z,5.70
2019-02-24T04:46:32.201Z,5.43
2019-02-24T04:52:38.315Z,5.73
2019-02-24T04:58:44.150Z,5.57
2019-02-24T05:04:50.090Z,6.10
2019-02-24T05:10:56.176Z,6.03
2019-02-24T05:17:02.169Z,5.93
2019-02-24T05:23:08.116Z,6.03
2019-02-24T05:29:14.320Z,5.97
2019-02-24T05:35:20.577Z,5.67
2019-02-24T05:41:26.395Z,5.37
2019-02-24T05:47:32.568Z,5.33
2019-02-24T05:53:38.577Z,5.73
2019-02-24T05:59:54.669Z,5.50
2019-02-24T06:05:52.843Z,5.37
2019-02-24T06:11:58.613Z,5.67
2019-02-24T06:18:04.492Z,5.00
2019-02-24T06:24:10.226Z,5.83
2019-02-24T06:30:15.997Z,5.33
2019-02-24T06:36:21.774Z,5.00
2019-02-24T06:42:27.724Z,5.17
2019-02-24T06:48:33.535Z,5.00
2019-02-24T06:54:39.343Z,5.03
2019-02-24T07:00:45.441Z,9.83
2019-02-24T07:06:51.428Z,5.43
2019-02-24T07:12:57.174Z,4.57
2019-02-24T07:19:03.204Z,5.97
2019-02-24T07:25:09.160Z,7.87
2019-02-24T07:31:16.797Z,4.50
2019-02-24T07:37:22.832Z,4.10
2019-02-24T07:43:28.825Z,4.20
2019-02-24T07:49:34.798Z,3.77
2019-02-24T07:55:40.990Z,3.23
2019-02-24T08:01:47.199Z,4.07
2019-02-24T08:07:53.256Z,3.30
2019-02-24T08:13:59.261Z,3.00
2019-02-24T08:20:06.007Z,2.80
2019-02-24T08:26:11.976Z,3.07
2019-02-24T08:32:17.991Z,2.80
2019-02-24T08:38:24.593Z,2.73
2019-02-24T08:44:31.044Z,2.97
2019-02-24T08:50:37.082Z,3.10
2019-02-24T08:56:43.074Z,2.70
2019-02-24T09:02:49.010Z,2.97
2019-02-24T09:08:55.031Z,2.73
2019-02-24T09:15:00.791Z,4.50
2019-02-24T09:21:06.715Z,4.20
2019-02-24T09:27:12.993Z,2.70
2019-02-24T09:33:19.096Z,2.97
2019-02-24T09:39:24.849Z,2.53
2019-02-24T09:45:30.671Z,2.70
2019-02-24T09:51:36.601Z,2.40
2019-02-24T09:57:42.871Z,3.60
2019-02-24T10:03:48.676Z,2.50
2019-02-24T10:09:54.475Z,2.70
2019-02-24T10:16:00.744Z,2.80
2019-02-24T10:22:06.587Z,3.40
2019-02-24T10:28:12.649Z,3.07
2019-02-24T10:34:18.428Z,2.70
2019-02-24T10:40:24.473Z,2.30
2019-02-24T10:46:30.371Z,2.40
2019-02-24T10:52:36.184Z,2.37
2019-02-24T10:58:41.984Z,2.93
2019-02-24T11:04:48.984Z,2.53
2019-02-24T11:10:54.892Z,2.43
2019-02-24T11:17:00.747Z,2.73
2019-02-24T11:23:06.630Z,2.40
2019-02-24T11:29:12.776Z,2.23
2019-02-24T11:35:18.596Z,2.17
2019-02-24T11:41:24.675Z,3.80
2019-02-24T11:47:30.558Z,2.90
2019-02-24T11:53:36.459Z,1.90
2019-02-24T11:59:42.476Z,1.73
2019-02-24T12:05:48.366Z,2.20
2019-02-24T12:11:54.437Z,2.43
2019-02-24T12:18:00.399Z,3.30
2019-02-24T12:24:06.145Z,3.43
2019-02-24T12:30:12.313Z,2.93
2019-02-24T12:36:18.110Z,2.53
2019-02-24T12:42:23.965Z,2.50
2019-02-24T12:48:30.303Z,2.43
2019-02-24T12:54:36.051Z,1.90
2019-02-24T13:00:42.213Z,2.00
2019-02-24T13:06:48.173Z,2.40
2019-02-24T13:12:53.999Z,2.20
2019-02-24T13:18:59.762Z,3.23
2019-02-24T13:25:05.612Z,2.10
2019-02-24T13:31:11.371Z,1.90
2019-02-24T13:37:17.094Z,2.43
2019-02-24T13:43:22.846Z,5.13
2019-02-24T13:49:28.637Z,1.60
2019-02-24T13:55:34.477Z,2.00
2019-02-24T14:01:40.271Z,2.00
2019-02-24T14:07:50.388Z,2.23
2019-02-24T14:13:56.330Z,1.90
2019-02-24T14:20:02.149Z,2.10
2019-02-24T14:26:08.196Z,2.40
2019-02-24T14:32:14.463Z,2.03
2019-02-24T14:38:20.257Z,2.00
2019-02-24T14:44:26.132Z,1.80
2019-02-24T14:50:31.867Z,1.70
2019-02-24T14:56:37.626Z,1.83
2019-02-24T15:02:43.590Z,2.20
2019-02-24T15:08:49.561Z,1.97
2019-02-24T15:14:55.578Z,2.20
2019-02-24T15:21:01.630Z,2.10
2019-02-24T15:27:07.461Z,2.10
2019-02-24T15:33:13.279Z,2.60
2019-02-24T15:39:19.117Z,1.90
2019-02-24T15:45:25.298Z,9.57
2019-02-24T15:51:31.128Z,4.00
2019-02-24T15:57:36.958Z,2.10
2019-02-24T16:03:42.858Z,2.40
2019-02-24T16:09:48.589Z,4.77
2019-02-24T16:15:54.386Z,2.80
2019-02-24T16:22:02.495Z,3.07
2019-02-24T16:28:08.497Z,2.80
2019-02-24T16:34:14.450Z,2.80
2019-02-24T16:40:21.879Z,2.90
2019-02-24T16:46:27.636Z,5.73
2019-02-24T16:52:33.419Z,4.17
2019-02-24T16:58:39.264Z,4.20
2019-02-24T17:04:45.235Z,4.30
2019-02-24T17:10:51.012Z,4.37
2019-02-24T17:17:01.630Z,4.90
2019-02-24T17:23:04.711Z,6.40
2019-02-24T17:29:10.738Z,8.20
2019-02-24T17:35:16.510Z,6.57
2019-02-24T17:41:22.427Z,6.13
2019-02-24T17:47:28.239Z,5.90
2019-02-24T17:53:34.448Z,18.97
2019-02-24T17:59:40.837Z,6.67
2019-02-24T18:05:46.789Z,8.20
2019-02-24T18:11:53.335Z,8.30
2019-02-24T18:17:59.609Z,7.70
2019-02-24T18:24:05.603Z,6.50
2019-02-24T18:30:15.842Z,9.00
2019-02-24T18:36:22.035Z,8.47
2019-02-24T18:42:27.884Z,6.77
2019-02-24T18:48:34.125Z,9.67
2019-02-24T18:54:41.835Z,8.33
2019-02-24T19:00:50.364Z,5.93
2019-02-24T19:06:56.849Z,7.10
2019-02-24T19:13:02.794Z,9.00
2019-02-24T19:19:09.824Z,6.53
2019-02-24T19:25:15.721Z,8.37
2019-02-24T19:31:21.508Z,8.33
2019-02-24T19:37:27.363Z,7.03
2019-02-24T19:43:33.387Z,7.20
2019-02-24T19:49:39.222Z,8.33
2019-02-24T19:55:45.196Z,8.43
2019-02-24T20:01:51.060Z,7.77
2019-02-24T20:07:56.874Z,7.27
2019-02-24T20:14:03.082Z,7.53
2019-02-24T20:20:10.170Z,6.27
2019-02-24T20:26:16.546Z,7.83
2019-02-24T20:32:22.355Z,11.37
2019-02-24T20:38:28.253Z,7.23
2019-02-24T20:44:34.036Z,6.90
2019-02-24T20:50:39.807Z,8.23
2019-02-24T20:56:45.678Z,6.30
2019-02-24T21:02:51.900Z,6.10
2019-02-24T21:08:57.890Z,5.80
2019-02-24T21:15:04.322Z,6.03
2019-02-24T21:21:10.165Z,7.67
2019-02-24T21:27:15.972Z,5.63
2019-02-24T21:33:22.302Z,7.07
2019-02-24T21:39:28.427Z,6.73
2019-02-24T21:45:34.164Z,6.97
2019-02-24T21:51:40.903Z,6.77
2019-02-24T21:57:46.916Z,6.70
2019-02-24T22:03:53.129Z,7.30
2019-02-24T22:09:59.558Z,6.33
2019-02-24T22:16:06.172Z,6.10
2019-02-24T22:22:11.945Z,6.73
2019-02-24T22:28:17.907Z,6.83
2019-02-24T22:34:23.906Z,7.20
2019-02-24T22:40:29.653Z,7.53
2019-02-24T22:46:35.499Z,7.50
2019-02-24T22:52:41.218Z,8.43
2019-02-24T22:58:47.333Z,8.80
2019-02-24T23:04:53.193Z,7.87
2019-02-24T23:10:59.226Z,7.43
2019-02-24T23:17:05.581Z,8.53
2019-02-24T23:23:11.567Z,7.60
2019-02-24T23:29:17.469Z,7.67
2019-02-24T23:35:23.327Z,7.23
2019-02-24T23:41:29.553Z,6.30
2019-02-24T23:47:36.006Z,7.27
2019-02-24T23:53:42.084Z,6.93
2019-02-24T23:59:48.202Z,6.73
